createdAt,value
2023-02-03T00:02:02.021Z,4.67
2023-02-03T00:04:28.752Z,4.64
2023-02-03T00:06:56.408Z,4.62
2023-02-03T00:09:23.234Z,4.61
2023-02-03T00:11:50.120Z,4.63
2023-02-03T00:14:17.684Z,4.61
2023-02-03T00:16:44.554Z,4.66
2023-02-03T00:19:11.343Z,4.67
2023-02-03T00:21:38.023Z,4.67
2023-02-03T00:24:05.192Z,4.58
2023-02-03T00:26:31.978Z,4.45
2023-02-03T00:29:00.141Z,4.58
2023-02-03T00:31:26.986Z,4.53
2023-02-03T00:33:58.640Z,4.51
2023-02-03T00:36:26.450Z,4.60
2023-02-03T00:38:53.663Z,4.53
2023-02-03T00:41:21.849Z,4.58
2023-02-03T00:43:49.845Z,4.53
2023-02-03T00:46:17.004Z,4.41
2023-02-03T00:48:43.792Z,4.46
2023-02-03T00:51:10.457Z,4.46
2023-02-03T00:53:37.202Z,4.51
2023-02-03T00:56:03.951Z,4.53
2023-02-03T00:58:30.836Z,4.59
2023-02-03T01:00:58.720Z,4.47
2023-02-03T01:03:25.615Z,4.49
2023-02-03T01:05:52.762Z,4.37
2023-02-03T01:08:20.175Z,4.45
2023-02-03T01:10:46.925Z,4.47
2023-02-03T01:13:13.597Z,4.41
2023-02-03T01:15:47.569Z,4.38
2023-02-03T01:18:15.000Z,4.43
2023-02-03T01:20:41.801Z,4.37
2023-02-03T01:23:08.497Z,4.49
2023-02-03T01:25:36.583Z,4.37
2023-02-03T01:28:03.394Z,4.49
2023-02-03T01:30:30.384Z,4.40
2023-02-03T01:33:00.275Z,4.42
2023-02-03T01:35:27.132Z,4.38
2023-02-03T01:37:53.888Z,4.39
2023-02-03T01:40:20.627Z,4.33
2023-02-03T01:42:47.359Z,4.44
2023-02-03T01:45:14.232Z,4.43
2023-02-03T01:48:00.532Z,4.44
2023-02-03T01:50:34.570Z,4.36
2023-02-03T01:53:09.143Z,4.37
2023-02-03T01:55:40.409Z,4.36
2023-02-03T01:58:15.288Z,4.46
2023-02-03T02:00:43.462Z,4.37
2023-02-03T02:03:10.863Z,4.46
2023-02-03T02:05:51.031Z,4.43
2023-02-03T02:08:19.731Z,4.34
2023-02-03T02:10:46.963Z,4.42
2023-02-03T02:13:15.616Z,4.52
2023-02-03T02:15:54.845Z,4.46
2023-02-03T02:18:40.324Z,4.50
2023-02-03T02:21:21.847Z,4.43
2023-02-03T02:24:15.978Z,4.52
2023-02-03T02:27:05.919Z,4.52
2023-02-03T02:30:15.805Z,4.42
2023-02-03T02:32:53.291Z,4.54
2023-02-03T02:35:44.432Z,4.48
2023-02-03T02:38:53.995Z,4.48
2023-02-03T02:41:29.397Z,4.46
2023-02-03T02:44:07.740Z,4.39
2023-02-03T02:46:39.751Z,4.45
2023-02-03T02:49:19.978Z,4.45
2023-02-03T02:51:48.797Z,4.51
2023-02-03T02:54:23.771Z,4.44
2023-02-03T02:56:56.482Z,4.47
2023-02-03T02:59:23.063Z,4.46
2023-02-03T03:01:49.742Z,4.40
2023-02-03T03:04:23.696Z,4.53
2023-02-03T03:06:59.045Z,4.49
2023-02-03T03:09:27.328Z,4.48
2023-02-03T03:12:00.364Z,4.49
2023-02-03T03:14:31.617Z,4.52
2023-02-03T03:17:04.534Z,4.46
2023-02-03T03:19:38.191Z,4.52
2023-02-03T03:22:09.084Z,4.58
2023-02-03T03:24:46.344Z,4.44
2023-02-03T03:27:25.768Z,4.52
2023-02-03T03:29:59.488Z,4.47
2023-02-03T03:32:28.222Z,4.54
2023-02-03T03:34:55.698Z,4.53
2023-02-03T03:37:30.668Z,4.48
2023-02-03T03:40:00.002Z,4.45
2023-02-03T03:42:34.540Z,4.42
2023-02-03T03:45:15.002Z,4.49
2023-02-03T03:47:59.023Z,4.47
2023-02-03T03:50:30.443Z,4.39
2023-02-03T03:53:00.482Z,4.47
2023-02-03T03:55:29.868Z,4.44
2023-02-03T03:58:03.668Z,4.34
2023-02-03T04:00:33.808Z,4.42
2023-02-03T04:03:07.186Z,4.41
2023-02-03T04:05:34.927Z,4.54
2023-02-03T04:08:03.507Z,4.46
2023-02-03T04:10:37.381Z,4.39
2023-02-03T04:13:05.288Z,4.36
2023-02-03T04:15:32.412Z,4.43
2023-02-03T04:18:01.953Z,4.38
2023-02-03T04:20:30.317Z,4.41
2023-02-03T04:22:57.380Z,4.46
2023-02-03T04:25:24.878Z,4.50
2023-02-03T04:27:51.762Z,4.43
2023-02-03T04:30:18.675Z,4.53
2023-02-03T04:32:46.506Z,4.49
2023-02-03T04:35:14.271Z,4.56
2023-02-03T04:37:41.254Z,4.63
2023-02-03T04:40:09.067Z,4.54
2023-02-03T04:42:40.173Z,4.59
2023-02-03T04:45:08.850Z,4.49
2023-02-03T04:47:35.992Z,4.50
2023-02-03T04:50:02.704Z,4.57
2023-02-03T04:52:29.411Z,4.53
2023-02-03T04:54:56.337Z,4.53
2023-02-03T04:57:26.198Z,4.57
2023-02-03T04:59:52.781Z,4.58
2023-02-03T05:02:21.458Z,4.51
2023-02-03T05:04:47.963Z,4.49
2023-02-03T05:07:14.943Z,4.47
2023-02-03T05:09:41.775Z,4.42
2023-02-03T05:12:08.369Z,4.41
2023-02-03T05:14:35.231Z,4.44
2023-02-03T05:17:02.009Z,4.52
2023-02-03T05:19:28.594Z,4.46
2023-02-03T05:21:55.525Z,4.51
2023-02-03T05:24:22.347Z,4.59
2023-02-03T05:26:49.159Z,4.60
2023-02-03T05:29:16.076Z,4.55
2023-02-03T05:31:42.949Z,4.53
2023-02-03T05:34:09.874Z,4.56
2023-02-03T05:36:41.976Z,4.62
2023-02-03T05:39:09.014Z,4.49
2023-02-03T05:41:56.464Z,4.51
2023-02-03T05:44:26.626Z,4.50
2023-02-03T05:46:55.373Z,4.46
2023-02-03T05:49:23.819Z,4.44
2023-02-03T05:51:52.011Z,4.45
2023-02-03T05:54:18.655Z,4.53
2023-02-03T05:56:46.204Z,4.54
2023-02-03T05:59:12.858Z,4.44
2023-02-03T06:01:39.670Z,4.49
2023-02-03T06:04:07.116Z,4.48
2023-02-03T06:06:34.114Z,4.41
2023-02-03T06:09:06.179Z,4.40
2023-02-03T06:11:33.820Z,4.47
2023-02-03T06:14:01.066Z,4.42
2023-02-03T06:16:29.079Z,4.41
2023-02-03T06:19:00.973Z,4.44
2023-02-03T06:21:27.991Z,4.40
2023-02-03T06:23:56.104Z,4.47
2023-02-03T06:26:22.909Z,4.43
2023-02-03T06:28:49.521Z,4.51
2023-02-03T06:31:16.261Z,4.55
2023-02-03T06:33:43.258Z,4.47
2023-02-03T06:36:10.168Z,4.50
2023-02-03T06:38:36.856Z,4.49
2023-02-03T06:41:03.469Z,4.53
2023-02-03T06:43:30.003Z,4.43
2023-02-03T06:45:56.692Z,4.51
2023-02-03T06:48:23.968Z,4.40
2023-02-03T06:50:50.742Z,4.58
2023-02-03T06:53:17.632Z,4.60
2023-02-03T06:55:44.209Z,4.57
2023-02-03T06:58:11.162Z,4.54
2023-02-03T07:00:38.035Z,4.55
2023-02-03T07:03:04.782Z,4.51
2023-02-03T07:05:31.856Z,4.41
2023-02-03T07:07:59.159Z,4.46
2023-02-03T07:10:25.943Z,4.56
2023-02-03T07:12:52.786Z,4.63
2023-02-03T07:15:19.439Z,4.60
2023-02-03T07:17:54.544Z,4.58
2023-02-03T07:20:22.543Z,4.58
2023-02-03T07:22:54.193Z,4.65
2023-02-03T07:25:21.127Z,4.59
2023-02-03T07:27:48.593Z,4.60
2023-02-03T07:30:15.446Z,4.62
2023-02-03T07:32:42.037Z,4.71
2023-02-03T07:35:08.849Z,4.76
2023-02-03T07:37:35.476Z,4.69
2023-02-03T07:40:02.054Z,4.67
2023-02-03T07:42:28.669Z,4.72
2023-02-03T07:44:55.335Z,4.74
2023-02-03T07:47:22.103Z,4.77
2023-02-03T07:49:48.749Z,4.74
2023-02-03T07:52:16.985Z,4.74
2023-02-03T07:54:43.505Z,4.77
2023-02-03T07:57:10.093Z,4.87
2023-02-03T07:59:36.754Z,4.84
2023-02-03T08:02:03.422Z,4.95
2023-02-03T08:04:30.575Z,4.92
2023-02-03T08:06:57.566Z,4.90
2023-02-03T08:09:24.407Z,4.85
2023-02-03T08:11:51.030Z,4.83
2023-02-03T08:14:17.653Z,4.70
2023-02-03T08:16:44.418Z,4.77
2023-02-03T08:19:11.233Z,4.70
2023-02-03T08:21:37.846Z,4.62
2023-02-03T08:24:05.243Z,4.58
2023-02-03T08:26:32.038Z,4.65
2023-02-03T08:28:58.647Z,4.56
2023-02-03T08:31:25.433Z,4.54
2023-02-03T08:33:52.201Z,4.54
2023-02-03T08:36:18.837Z,4.48
2023-02-03T08:38:45.602Z,4.53
2023-02-03T08:41:14.963Z,4.59
2023-02-03T08:43:41.961Z,4.58
2023-02-03T08:46:10.962Z,4.58
2023-02-03T08:48:37.857Z,4.62
2023-02-03T08:51:12.748Z,4.62
2023-02-03T08:53:39.946Z,4.67
2023-02-03T08:56:08.735Z,4.79
2023-02-03T08:58:35.800Z,4.66
2023-02-03T09:01:11.359Z,4.77
2023-02-03T09:03:39.191Z,4.88
2023-02-03T09:06:07.105Z,4.89
2023-02-03T09:08:34.097Z,4.91
2023-02-03T09:11:00.637Z,4.93
2023-02-03T09:13:27.407Z,4.90
2023-02-03T09:15:54.011Z,4.95
2023-02-03T09:18:20.606Z,4.98
2023-02-03T09:20:47.564Z,5.02
2023-02-03T09:23:14.313Z,4.93
2023-02-03T09:25:41.621Z,5.18
2023-02-03T09:28:09.792Z,5.08
2023-02-03T09:30:36.389Z,5.18
2023-02-03T09:33:03.138Z,5.26
2023-02-03T09:35:30.231Z,5.20
2023-02-03T09:37:58.990Z,5.39
2023-02-03T09:40:34.740Z,5.33
2023-02-03T09:43:19.853Z,5.29
2023-02-03T09:45:47.885Z,5.31
2023-02-03T09:48:24.429Z,5.42
2023-02-03T09:50:52.811Z,5.36
2023-02-03T09:53:35.898Z,5.41
2023-02-03T09:56:03.359Z,5.37
2023-02-03T09:58:34.172Z,5.31
2023-02-03T10:01:07.691Z,5.25
2023-02-03T10:03:57.227Z,5.35
2023-02-03T10:06:47.130Z,5.46
2023-02-03T10:09:25.482Z,5.37
2023-02-03T10:12:23.907Z,5.43
2023-02-03T10:15:15.452Z,5.40
2023-02-03T10:17:57.597Z,5.44
2023-02-03T10:20:36.028Z,5.30
2023-02-03T10:23:12.030Z,5.35
2023-02-03T10:25:45.540Z,5.27
2023-02-03T10:28:24.572Z,5.31
2023-02-03T10:31:00.647Z,5.39
2023-02-03T10:33:29.961Z,5.31
2023-02-03T10:36:14.802Z,5.36
2023-02-03T10:39:07.757Z,5.45
2023-02-03T10:41:35.064Z,5.34
2023-02-03T10:44:07.342Z,5.44
2023-02-03T10:46:37.854Z,5.43
2023-02-03T10:49:04.910Z,5.45
2023-02-03T10:51:40.627Z,5.50
2023-02-03T10:54:29.326Z,5.45
2023-02-03T10:57:03.834Z,5.56
2023-02-03T10:59:34.559Z,5.53
2023-02-03T11:02:08.283Z,5.43
2023-02-03T11:04:36.089Z,5.50
2023-02-03T11:07:07.069Z,5.55
2023-02-03T11:09:37.803Z,5.49
2023-02-03T11:12:12.187Z,5.48
2023-02-03T11:14:44.359Z,5.60
2023-02-03T11:17:20.053Z,5.51
2023-02-03T11:19:48.538Z,5.48
2023-02-03T11:22:31.879Z,5.55
2023-02-03T11:25:00.266Z,5.53
2023-02-03T11:27:30.587Z,5.52
2023-02-03T11:30:19.747Z,5.57
2023-02-03T11:32:48.876Z,5.58
2023-02-03T11:35:27.518Z,5.54
2023-02-03T11:37:59.194Z,5.43
2023-02-03T11:40:30.854Z,5.55
2023-02-03T11:42:58.591Z,5.42
2023-02-03T11:45:42.916Z,5.34
2023-02-03T11:48:31.104Z,5.42
2023-02-03T11:51:13.359Z,5.55
2023-02-03T11:54:01.230Z,5.30
2023-02-03T11:56:46.682Z,5.39
2023-02-03T11:59:22.024Z,5.35
2023-02-03T12:01:54.695Z,5.44
2023-02-03T12:05:03.936Z,5.46
2023-02-03T12:07:58.729Z,5.55
2023-02-03T12:10:38.024Z,5.60
2023-02-03T12:13:16.892Z,5.51
2023-02-03T12:16:05.070Z,5.49
2023-02-03T12:19:05.202Z,5.48
2023-02-03T12:21:50.198Z,5.59
2023-02-03T12:24:35.897Z,5.59
2023-02-03T12:27:17.805Z,5.59
2023-02-03T12:29:59.939Z,5.46
2023-02-03T12:32:43.055Z,5.55
2023-02-03T12:35:40.850Z,5.61
2023-02-03T12:38:16.560Z,5.58
2023-02-03T12:40:52.988Z,5.57
2023-02-03T12:43:28.116Z,5.58
2023-02-03T12:46:01.110Z,5.59
2023-02-03T12:48:59.829Z,5.65
2023-02-03T12:51:50.061Z,5.67
2023-02-03T12:54:31.413Z,5.69
2023-02-03T12:57:08.199Z,5.65
2023-02-03T12:59:40.477Z,5.69
2023-02-03T13:02:22.303Z,5.61
2023-02-03T13:04:59.538Z,5.70
2023-02-03T13:07:46.419Z,5.49
2023-02-03T13:10:18.732Z,5.65
2023-02-03T13:12:53.145Z,5.75
2023-02-03T13:15:35.571Z,5.71
2023-02-03T13:18:28.215Z,5.72
2023-02-03T13:20:55.425Z,5.67
2023-02-03T13:23:23.040Z,5.69
2023-02-03T13:26:16.161Z,5.64
2023-02-03T13:29:13.740Z,5.71
2023-02-03T13:32:11.715Z,5.72
2023-02-03T13:35:03.958Z,5.72
2023-02-03T13:37:37.275Z,5.62
2023-02-03T13:40:28.780Z,5.73
2023-02-03T13:43:00.809Z,5.78
2023-02-03T13:45:27.481Z,5.70
2023-02-03T13:47:58.321Z,5.67
2023-02-03T13:50:29.946Z,5.63
2023-02-03T13:52:59.859Z,5.77
2023-02-03T13:55:31.655Z,5.82
2023-02-03T13:57:58.708Z,5.69
2023-02-03T14:00:43.715Z,5.85
2023-02-03T14:03:20.134Z,5.85
2023-02-03T14:05:52.489Z,5.80
2023-02-03T14:08:28.081Z,5.85
2023-02-03T14:11:31.691Z,5.89
2023-02-03T14:14:04.536Z,5.85
2023-02-03T14:16:44.647Z,5.92
2023-02-03T14:19:31.741Z,5.93
2023-02-03T14:22:05.543Z,5.89
2023-02-03T14:24:34.252Z,5.91
2023-02-03T14:27:03.934Z,5.91
2023-02-03T14:29:35.285Z,5.98
2023-02-03T14:32:10.403Z,5.81
2023-02-03T14:34:49.945Z,5.94
2023-02-03T14:37:30.678Z,5.79
2023-02-03T14:40:11.484Z,5.81
2023-02-03T14:43:09.533Z,5.97
2023-02-03T14:45:51.953Z,5.93
2023-02-03T14:48:40.295Z,5.90
2023-02-03T14:51:16.982Z,5.89
2023-02-03T14:54:22.233Z,5.94
2023-02-03T14:57:07.223Z,5.94
2023-02-03T14:59:41.641Z,5.93
2023-02-03T15:02:27.267Z,5.88
2023-02-03T15:05:14.040Z,5.90
2023-02-03T15:07:45.144Z,5.91
2023-02-03T15:10:14.731Z,5.92
2023-02-03T15:12:48.791Z,5.92
2023-02-03T15:15:34.676Z,5.85
2023-02-03T15:18:21.501Z,5.92
2023-02-03T15:20:54.076Z,5.91
2023-02-03T15:23:25.980Z,5.98
2023-02-03T15:25:56.833Z,5.89
2023-02-03T15:28:25.847Z,5.95
2023-02-03T15:31:12.452Z,6.00
2023-02-03T15:33:40.232Z,5.97
2023-02-03T15:36:30.596Z,6.03
2023-02-03T15:39:07.644Z,6.02
2023-02-03T15:41:34.643Z,6.04
2023-02-03T15:44:12.159Z,6.07
2023-02-03T15:46:43.138Z,6.03
2023-02-03T15:49:27.912Z,6.04
2023-02-03T15:52:13.199Z,6.16
2023-02-03T15:54:46.410Z,6.07
2023-02-03T15:57:18.738Z,6.05
2023-02-03T15:59:56.635Z,6.06
2023-02-03T16:02:30.797Z,6.06
2023-02-03T16:04:58.235Z,5.99
2023-02-03T16:07:30.942Z,6.01
2023-02-03T16:10:01.233Z,6.11
2023-02-03T16:12:32.520Z,6.11
2023-02-03T16:15:01.926Z,6.09
2023-02-03T16:17:33.479Z,6.05
2023-02-03T16:20:12.695Z,6.11
2023-02-03T16:22:45.667Z,6.04
2023-02-03T16:25:20.579Z,6.05
2023-02-03T16:28:14.794Z,6.12
2023-02-03T16:31:13.599Z,6.13
2023-02-03T16:34:02.387Z,6.14
2023-02-03T16:36:47.713Z,6.08
2023-02-03T16:39:32.641Z,6.09
2023-02-03T16:42:19.520Z,6.10
2023-02-03T16:45:04.746Z,6.21
2023-02-03T16:47:51.648Z,6.13
2023-02-03T16:50:40.448Z,6.12
2023-02-03T16:53:13.644Z,6.13
2023-02-03T16:55:41.363Z,6.17
2023-02-03T16:58:08.819Z,6.13
2023-02-03T17:00:35.510Z,6.15
2023-02-03T17:03:05.813Z,6.22
2023-02-03T17:05:37.571Z,6.20
2023-02-03T17:08:05.007Z,6.14
2023-02-03T17:10:37.575Z,6.18
2023-02-03T17:13:05.113Z,6.14
2023-02-03T17:15:32.456Z,6.12
2023-02-03T17:17:59.462Z,6.10
2023-02-03T17:20:26.516Z,6.10
2023-02-03T17:22:54.855Z,6.09
2023-02-03T17:25:21.844Z,6.04
2023-02-03T17:27:48.698Z,6.08
2023-02-03T17:30:15.744Z,6.09
2023-02-03T17:32:42.523Z,6.14
2023-02-03T17:35:09.215Z,6.11
2023-02-03T17:37:36.489Z,6.16
2023-02-03T17:53:57.394Z,6.03
2023-02-03T17:56:25.347Z,6.03
2023-02-03T17:58:56.749Z,6.05
2023-02-03T18:01:25.299Z,5.99
2023-02-03T18:03:55.290Z,5.93
2023-02-03T18:06:24.276Z,5.94
2023-02-03T18:08:52.783Z,5.92
2023-02-03T18:11:20.279Z,5.87
2023-02-03T18:13:48.833Z,5.93
2023-02-03T18:16:18.533Z,5.91
2023-02-03T18:18:45.237Z,6.01
2023-02-03T18:21:14.206Z,5.93
2023-02-03T18:23:42.320Z,5.99
2023-02-03T18:26:11.183Z,6.03
2023-02-03T18:28:39.067Z,5.98
2023-02-03T18:31:15.460Z,6.04
2023-02-03T18:33:43.943Z,6.06
2023-02-03T18:36:12.804Z,6.09
2023-02-03T18:38:41.526Z,6.10
2023-02-03T18:41:23.720Z,6.11
2023-02-03T18:43:51.652Z,6.02
2023-02-03T18:46:24.841Z,5.99
2023-02-03T18:48:51.702Z,6.05
2023-02-03T18:51:20.469Z,6.02
2023-02-03T18:53:49.451Z,6.04
2023-02-03T18:56:21.484Z,5.95
2023-02-03T18:58:50.934Z,6.02
2023-02-03T19:01:26.708Z,6.03
2023-02-03T19:03:56.374Z,6.03
2023-02-03T19:06:24.596Z,5.94
2023-02-03T19:08:51.650Z,5.94
2023-02-03T19:11:19.250Z,5.94
2023-02-03T19:13:46.221Z,5.94
2023-02-03T19:16:15.155Z,5.91
2023-02-03T19:18:41.871Z,5.93
2023-02-03T19:21:11.181Z,5.91
2023-02-03T19:23:39.281Z,5.90
2023-02-03T19:26:05.976Z,5.89
2023-02-03T19:28:35.284Z,5.82
2023-02-03T19:31:20.307Z,5.96
2023-02-03T19:33:46.985Z,5.95
2023-02-03T19:36:14.886Z,5.91
2023-02-03T19:38:41.565Z,5.93
2023-02-03T19:41:09.571Z,5.94
2023-02-03T19:43:36.468Z,5.89
2023-02-03T19:46:03.162Z,6.01
2023-02-03T19:48:30.296Z,5.93
2023-02-03T19:50:57.302Z,6.00
2023-02-03T19:53:24.417Z,6.05
2023-02-03T19:55:51.527Z,6.03
2023-02-03T19:58:18.504Z,6.04
2023-02-03T20:00:45.485Z,6.04
2023-02-03T20:03:12.432Z,6.04
2023-02-03T20:05:39.069Z,6.01
2023-02-03T20:08:06.283Z,6.02
2023-02-03T20:10:33.271Z,6.07
2023-02-03T20:13:00.852Z,6.05
2023-02-03T20:15:27.963Z,6.02
2023-02-03T20:17:55.227Z,6.09
2023-02-03T20:20:22.089Z,5.97
2023-02-03T20:22:49.682Z,6.04
2023-02-03T20:25:16.753Z,6.01
2023-02-03T20:27:43.566Z,6.10
2023-02-03T20:30:11.353Z,6.03
2023-02-03T20:32:38.438Z,5.99
2023-02-03T20:35:06.515Z,6.02
2023-02-03T20:37:36.411Z,6.01
2023-02-03T20:40:12.409Z,5.96
2023-02-03T20:42:39.192Z,5.99
2023-02-03T20:45:20.010Z,6.03
2023-02-03T20:47:47.627Z,6.02
2023-02-03T20:50:22.630Z,6.01
2023-02-03T20:52:53.386Z,6.02
2023-02-03T20:55:24.177Z,5.98
2023-02-03T20:57:51.669Z,5.99
2023-02-03T21:00:24.347Z,5.94
2023-02-03T21:03:10.260Z,5.95
2023-02-03T21:05:40.058Z,5.96
2023-02-03T21:08:18.378Z,5.93
2023-02-03T21:10:46.429Z,5.93
2023-02-03T21:13:22.515Z,5.94
2023-02-03T21:15:51.251Z,5.91
2023-02-03T21:18:44.455Z,5.89
2023-02-03T21:21:16.516Z,5.95
2023-02-03T21:23:47.214Z,5.93
2023-02-03T21:26:34.630Z,5.95
2023-02-03T21:29:02.637Z,5.98
2023-02-03T21:31:32.920Z,5.97
2023-02-03T21:34:01.661Z,5.94
2023-02-03T21:36:34.180Z,5.89
2023-02-03T21:39:01.658Z,5.91
2023-02-03T21:41:33.680Z,5.99
2023-02-03T21:44:00.550Z,5.92
2023-02-03T21:46:29.843Z,5.93
2023-02-03T21:48:58.177Z,5.93
2023-02-03T21:51:33.182Z,5.95
2023-02-03T21:54:01.829Z,5.94
2023-02-03T21:56:37.516Z,5.91
2023-02-03T21:59:04.963Z,5.94
2023-02-03T22:01:37.173Z,5.91
2023-02-03T22:04:04.172Z,5.95
2023-02-03T22:06:49.237Z,5.90
2023-02-03T22:09:21.683Z,5.96
2023-02-03T22:11:48.458Z,5.94
2023-02-03T22:14:16.616Z,5.98
2023-02-03T22:16:44.140Z,5.97
2023-02-03T22:19:11.122Z,5.99
2023-02-03T22:21:37.704Z,5.94
2023-02-03T22:24:04.740Z,6.00
2023-02-03T22:26:31.453Z,6.08
2023-02-03T22:28:57.973Z,6.09
2023-02-03T22:31:24.662Z,6.09
2023-02-03T22:33:51.342Z,6.09
2023-02-03T22:36:19.176Z,6.10
2023-02-03T22:38:45.740Z,6.07
2023-02-03T22:41:13.029Z,6.11
2023-02-03T22:43:40.154Z,6.16
2023-02-03T22:46:07.867Z,6.10
2023-02-03T22:48:34.815Z,6.18
2023-02-03T22:51:01.593Z,6.17
2023-02-03T22:53:28.428Z,6.19
2023-02-03T22:55:55.419Z,6.13
2023-02-03T22:58:22.180Z,6.12
2023-02-03T23:00:48.843Z,6.23
2023-02-03T23:03:15.600Z,6.20
2023-02-03T23:05:42.219Z,6.18
2023-02-03T23:08:09.697Z,6.20
2023-02-03T23:10:36.435Z,6.22
2023-02-03T23:13:03.014Z,6.13
2023-02-03T23:15:29.789Z,6.23
2023-02-03T23:17:56.684Z,6.24
2023-02-03T23:20:24.460Z,6.22
2023-02-03T23:22:51.195Z,6.19
2023-02-03T23:25:17.799Z,6.26
2023-02-03T23:27:44.554Z,6.24
2023-02-03T23:30:11.639Z,6.23
2023-02-03T23:32:38.291Z,6.17
2023-02-03T23:35:23.764Z,6.20
2023-02-03T23:37:50.398Z,6.22
2023-02-03T23:40:17.252Z,6.22
2023-02-03T23:42:43.881Z,6.22
2023-02-03T23:45:12.227Z,6.22
2023-02-03T23:47:41.048Z,6.23
2023-02-03T23:50:10.203Z,6.19
2023-02-03T23:52:37.441Z,6.23
2023-02-03T23:55:13.647Z,6.23
2023-02-03T23:57:42.605Z,6.15
